Time;durP1;ratioP1;P1;durP2;ratioP2;P2;SDS_P1;SDS_P2;PMS_P1;PMS_P2;Temp;Humidity;BMP_temperature;BMP_pressure;BME280_temperature;BME280_humidity;BME280_pressure;Samples;Min_cycle;Max_cycle;Signal;HPM_P1;HPM_P2
2022/09/11 00:02:10;;;;;;;12.70;11.40;;;15.00;99.90;;;;;;5033406;28;20467;-60
2022/09/11 00:04:37;;;;;;;11.60;10.50;;;14.90;99.90;;;;;;5033308;28;20484;-61
2022/09/11 00:07:04;;;;;;;12.80;10.83;;;14.90;99.90;;;;;;5033080;28;20468;-60
2022/09/11 00:09:31;;;;;;;12.73;11.43;;;14.90;99.90;;;;;;5033317;28;20445;-61
2022/09/11 00:11:58;;;;;;;12.40;11.10;;;14.80;99.90;;;;;;5033264;28;20444;-61
2022/09/11 00:14:27;;;;;;;11.60;10.40;;;14.80;99.90;;;;;;5033015;28;20852;-61
2022/09/11 00:16:54;;;;;;;12.93;11.63;;;14.80;99.90;;;;;;5033218;28;20465;-61
2022/09/11 00:19:21;;;;;;;12.47;11.27;;;14.80;99.90;;;;;;5033252;28;20471;-61
2022/09/11 00:21:49;;;;;;;13.37;11.93;;;14.70;99.90;;;;;;5032802;28;20948;-61
2022/09/11 00:24:16;;;;;;;15.03;12.17;;;14.70;99.90;;;;;;5033078;28;20543;-61
2022/09/11 00:26:45;;;;;;;17.00;13.03;;;14.70;99.90;;;;;;5036265;28;20473;-60
2022/09/11 00:29:11;;;;;;;14.10;12.60;;;14.70;99.90;;;;;;5037340;28;20444;-60
2022/09/11 00:31:40;;;;;;;14.60;12.83;;;14.70;99.90;;;;;;5037388;28;20455;-61
2022/09/11 00:34:07;;;;;;;15.20;13.60;;;14.70;99.90;;;;;;5037370;28;20445;-60
2022/09/11 00:36:35;;;;;;;18.20;14.27;;;14.60;99.90;;;;;;5037252;28;20461;-60
2022/09/11 00:39:01;;;;;;;21.60;16.80;;;14.60;99.90;;;;;;5037704;28;20445;-60
2022/09/11 00:41:32;;;;;;;18.53;15.10;;;14.60;99.90;;;;;;5036893;28;20815;-60
2022/09/11 00:44:01;;;;;;;19.10;16.43;;;14.60;99.90;;;;;;5037280;28;20440;-62
2022/09/11 00:46:41;;;;;;;17.00;13.27;;;14.60;99.90;;;;;;5037116;28;20457;-61
2022/09/11 00:49:23;;;;;;;17.10;13.60;;;14.60;99.90;;;;;;5036951;28;20425;-61
2022/09/11 00:51:55;;;;;;;15.10;13.13;;;14.60;99.90;;;;;;5037021;28;20425;-61
2022/09/11 00:54:27;;;;;;;14.83;13.17;;;14.60;99.90;;;;;;5036935;28;20452;-61
2022/09/11 00:56:57;;;;;;;16.30;14.30;;;14.60;99.90;;;;;;5037173;28;20559;-60
2022/09/11 00:59:25;;;;;;;16.97;14.27;;;14.50;99.90;;;;;;5037394;28;20457;-61
2022/09/11 01:01:54;;;;;;;16.77;14.80;;;14.50;99.90;;;;;;5036963;28;20534;-61
2022/09/11 01:04:22;;;;;;;17.40;15.53;;;14.50;99.90;;;;;;5037141;28;20456;-60
2022/09/11 01:06:50;;;;;;;18.37;16.23;;;14.50;99.90;;;;;;5036413;28;20980;-60
2022/09/11 01:09:19;;;;;;;18.00;16.10;;;14.50;99.90;;;;;;5036572;28;20450;-61
2022/09/11 01:11:52;;;;;;;15.90;14.20;;;14.50;99.90;;;;;;5036300;28;20941;-61
2022/09/11 01:14:32;;;;;;;16.17;13.50;;;14.50;99.90;;;;;;5036567;28;20453;-61
2022/09/11 01:17:14;;;;;;;15.93;13.17;;;14.50;99.90;;;;;;5036348;28;20463;-61
2022/09/11 01:20:09;;;;;;;17.90;15.97;;;14.50;99.90;;;;;;5036222;28;20425;-61
2022/09/11 01:22:57;;;;;;;17.97;15.70;;;14.50;99.90;;;;;;5020880;28;20755;-61
2022/09/11 01:25:27;;;;;;;17.47;14.70;;;14.50;99.90;;;;;;5035874;28;20428;-61
2022/09/11 01:27:59;;;;;;;17.73;15.10;;;14.50;99.90;;;;;;5035619;28;20852;-60
2022/09/11 01:30:32;;;;;;;17.30;15.17;;;14.40;99.90;;;;;;5036051;28;20491;-60
2022/09/11 01:33:16;;;;;;;17.80;15.37;;;14.40;99.90;;;;;;5035973;28;20524;-61
2022/09/11 01:35:54;;;;;;;21.20;16.27;;;14.40;99.90;;;;;;5035598;28;20480;-61
2022/09/11 01:38:28;;;;;;;22.70;17.77;;;14.40;99.90;;;;;;5035131;28;20436;-60
2022/09/11 01:41:00;;;;;;;24.50;19.47;;;14.40;99.90;;;;;;5035842;28;20436;-61
2022/09/11 01:43:32;;;;;;;29.70;20.23;;;14.40;99.90;;;;;;5035813;28;20433;-61
2022/09/11 01:46:01;;;;;;;32.47;21.20;;;14.40;99.90;;;;;;5035688;28;20436;-61
2022/09/11 01:48:32;;;;;;;33.07;22.87;;;14.40;99.90;;;;;;5035611;28;20805;-61
2022/09/11 01:51:01;;;;;;;38.87;22.93;;;14.50;99.90;;;;;;5035185;28;20441;-61
2022/09/11 01:53:33;;;;;;;38.33;24.97;;;14.50;99.90;;;;;;5035540;28;20468;-60
2022/09/11 01:56:04;;;;;;;36.87;23.77;;;14.50;99.90;;;;;;5035376;28;20484;-61
2022/09/11 01:58:35;;;;;;;39.90;24.73;;;14.50;99.90;;;;;;5035523;28;20524;-60
2022/09/11 02:01:07;;;;;;;38.17;23.13;;;14.50;99.90;;;;;;5035566;28;20440;-60
2022/09/11 02:03:37;;;;;;;35.63;23.00;;;14.50;99.90;;;;;;5035400;28;20429;-61
2022/09/11 02:06:07;;;;;;;41.30;25.07;;;14.40;99.90;;;;;;5039955;28;20521;-60
2022/09/11 02:08:40;;;;;;;42.70;25.10;;;14.40;99.90;;;;;;5045244;28;20430;-60
2022/09/11 02:11:10;;;;;;;44.70;25.90;;;14.40;99.90;;;;;;5045284;28;20436;-60
2022/09/11 02:13:46;;;;;;;40.50;24.60;;;14.40;99.90;;;;;;5046136;28;20504;-60
2022/09/11 02:16:20;;;;;;;41.50;26.20;;;14.40;99.90;;;;;;5045846;28;20551;-60
2022/09/11 02:18:57;;;;;;;45.60;26.70;;;14.40;99.90;;;;;;5038594;28;20943;-60
2022/09/11 02:21:24;;;;;;;49.90;27.00;;;14.50;99.90;;;;;;5035846;28;20425;-60
2022/09/11 02:23:54;;;;;;;37.33;23.27;;;14.50;99.90;;;;;;5035081;28;20532;-60
2022/09/11 02:28:54;;;;;;;41.70;25.83;;;14.50;99.90;;;;;;5054197;28;20472;-62
2022/09/11 02:31:22;;;;;;;45.03;27.23;;;14.50;99.90;;;;;;5054128;28;20446;-62
2022/09/11 02:33:50;;;;;;;48.20;27.00;;;14.50;99.90;;;;;;5060897;28;20440;-62
2022/09/11 02:36:34;;;;;;;48.73;27.67;;;14.50;99.90;;;;;;5055486;28;20490;-61
2022/09/11 02:39:23;;;;;;;47.77;27.30;;;14.40;99.90;;;;;;5054727;28;20436;-62
2022/09/11 02:42:03;;;;;;;47.77;27.83;;;14.40;99.90;;;;;;5054912;28;20440;-62
2022/09/11 02:44:36;;;;;;;46.97;25.80;;;14.40;99.90;;;;;;5054524;28;20436;-62
2022/09/11 02:47:19;;;;;;;43.83;25.00;;;14.40;99.90;;;;;;5054438;28;20461;-62
2022/09/11 02:49:59;;;;;;;42.63;24.53;;;14.40;99.90;;;;;;5054006;28;20424;-62
2022/09/11 02:52:37;;;;;;;52.33;25.93;;;14.40;99.90;;;;;;5053833;28;20453;-63
2022/09/11 02:55:10;;;;;;;53.67;28.60;;;14.40;99.90;;;;;;5054632;28;20435;-63
2022/09/11 02:57:41;;;;;;;51.03;27.87;;;14.40;99.90;;;;;;5054357;28;20468;-63
2022/09/11 03:00:11;;;;;;;58.60;28.50;;;14.40;99.90;;;;;;5054332;28;20519;-63
2022/09/11 03:02:41;;;;;;;55.00;27.50;;;14.40;99.90;;;;;;5054742;28;20444;-63
2022/09/11 03:05:10;;;;;;;56.97;28.30;;;14.40;99.90;;;;;;5054546;28;20478;-63
2022/09/11 03:07:38;;;;;;;52.13;27.57;;;14.40;99.90;;;;;;5054432;28;20460;-63
2022/09/11 03:10:05;;;;;;;48.60;25.50;;;14.40;99.90;;;;;;5054417;28;20505;-63
2022/09/11 03:12:35;;;;;;;44.77;26.83;;;14.40;99.90;;;;;;5054994;28;20455;-63
2022/09/11 03:15:02;;;;;;;48.23;26.40;;;14.40;99.90;;;;;;5053873;28;20548;-62
2022/09/11 03:17:30;;;;;;;46.33;27.60;;;14.30;99.90;;;;;;5054002;28;20967;-63
2022/09/11 03:19:56;;;;;;;41.17;23.07;;;14.30;99.90;;;;;;5053900;28;20451;-63
2022/09/11 03:22:24;;;;;;;41.47;23.80;;;14.30;99.90;;;;;;5054560;28;20451;-63
2022/09/11 03:24:50;;;;;;;38.60;23.27;;;14.20;99.90;;;;;;5054457;28;20440;-63
2022/09/11 03:27:17;;;;;;;36.63;22.50;;;14.20;99.90;;;;;;5053752;28;20851;-63
2022/09/11 03:29:45;;;;;;;40.47;23.60;;;14.20;99.90;;;;;;5053866;28;20448;-63
2022/09/11 03:32:12;;;;;;;50.50;25.03;;;14.20;99.90;;;;;;5053662;28;20484;-63
2022/09/11 03:34:40;;;;;;;51.87;24.87;;;14.20;99.90;;;;;;5053514;28;20440;-63
2022/09/11 03:37:06;;;;;;;42.73;23.30;;;14.10;99.90;;;;;;5053594;28;20491;-63
2022/09/11 03:39:33;;;;;;;52.30;23.40;;;14.10;99.90;;;;;;5053504;28;20810;-63
2022/09/11 03:42:00;;;;;;;48.03;22.73;;;14.10;99.90;;;;;;5053364;28;20440;-63
2022/09/11 03:44:27;;;;;;;40.20;24.30;;;14.10;99.90;;;;;;5053442;28;20439;-62
2022/09/11 03:46:53;;;;;;;39.50;22.43;;;14.10;99.90;;;;;;5053309;28;20460;-63
2022/09/11 03:49:20;;;;;;;39.37;21.50;;;14.10;99.90;;;;;;5052967;28;20940;-62
2022/09/11 03:51:48;;;;;;;38.53;23.40;;;14.10;99.90;;;;;;5052672;28;20444;-63
2022/09/11 03:54:16;;;;;;;41.80;21.50;;;14.00;99.90;;;;;;5053193;28;20784;-63
2022/09/11 03:56:43;;;;;;;38.33;22.13;;;14.00;99.90;;;;;;5052887;28;20999;-63
2022/09/11 03:59:10;;;;;;;45.43;22.57;;;14.00;99.90;;;;;;5053151;28;20480;-62
2022/09/11 04:01:36;;;;;;;35.40;21.57;;;14.00;99.90;;;;;;5052374;28;20554;-63
2022/09/11 04:04:03;;;;;;;47.37;21.37;;;14.00;99.90;;;;;;5052890;28;20453;-66
2022/09/11 04:06:31;;;;;;;38.83;20.50;;;14.00;99.90;;;;;;5053132;28;20444;-62
2022/09/11 04:10:15;;;;;;;36.87;21.37;;;14.00;99.90;;;;;;5091251;27;20546;-63
2022/09/11 04:12:41;;;;;;;35.03;19.67;;;14.00;99.90;;;;;;5091218;28;20439;-63
2022/09/11 04:15:09;;;;;;;39.17;20.00;;;14.00;99.90;;;;;;5091132;28;20438;-62
2022/09/11 04:17:36;;;;;;;33.77;16.73;;;14.00;99.90;;;;;;5090838;28;20488;-62
2022/09/11 04:20:04;;;;;;;41.47;21.10;;;13.90;99.90;;;;;;5091106;28;20442;-63
2022/09/11 04:22:31;;;;;;;33.13;19.00;;;14.00;99.90;;;;;;5090787;28;20453;-62
2022/09/11 04:24:57;;;;;;;35.90;18.60;;;13.90;99.90;;;;;;5090666;28;20458;-63
2022/09/11 04:27:26;;;;;;;32.30;18.60;;;13.90;99.90;;;;;;5090311;28;20989;-64
2022/09/11 04:29:52;;;;;;;33.53;17.80;;;13.90;99.90;;;;;;5090480;28;20648;-63
2022/09/11 04:32:19;;;;;;;31.30;19.17;;;13.90;99.90;;;;;;5090269;28;20446;-63
2022/09/11 04:34:46;;;;;;;33.80;18.20;;;14.00;99.90;;;;;;5090286;28;20785;-63
2022/09/11 04:37:13;;;;;;;35.83;19.60;;;14.00;99.90;;;;;;5090806;28;20462;-63
2022/09/11 04:39:39;;;;;;;33.67;18.40;;;14.00;99.90;;;;;;5090666;28;20458;-63
2022/09/11 04:42:09;;;;;;;30.50;19.17;;;13.90;99.90;;;;;;5090354;28;20948;-63
2022/09/11 04:44:38;;;;;;;33.10;18.00;;;13.90;99.90;;;;;;5090523;28;20470;-65
2022/09/11 04:47:05;;;;;;;31.53;18.27;;;13.90;99.90;;;;;;5091429;28;20895;-63
2022/09/11 04:49:32;;;;;;;33.57;17.20;;;13.90;99.90;;;;;;5104033;28;20475;-63
2022/09/11 04:52:01;;;;;;;37.17;19.90;;;13.90;99.90;;;;;;5092981;28;20613;-64
2022/09/11 04:54:28;;;;;;;33.27;20.33;;;13.90;99.90;;;;;;5091953;28;20438;-63
2022/09/11 04:56:56;;;;;;;35.93;19.70;;;13.90;99.90;;;;;;5090676;28;20460;-63
2022/09/11 04:59:23;;;;;;;36.30;19.47;;;13.90;99.90;;;;;;5089872;28;20438;-63
2022/09/11 05:01:53;;;;;;;35.67;20.60;;;13.90;99.90;;;;;;5092110;28;20442;-64
2022/09/11 05:04:20;;;;;;;36.30;19.87;;;13.90;99.90;;;;;;5090210;28;20446;-62
2022/09/11 05:06:47;;;;;;;31.30;19.00;;;13.90;99.90;;;;;;5089715;28;20466;-63
2022/09/11 05:09:16;;;;;;;34.97;20.30;;;13.90;99.90;;;;;;5089265;28;20478;-63
2022/09/11 05:11:43;;;;;;;38.83;20.53;;;14.00;99.90;;;;;;5089544;28;20438;-63
2022/09/11 05:14:11;;;;;;;41.80;23.00;;;14.00;99.90;;;;;;5089342;28;20954;-63
2022/09/11 05:16:38;;;;;;;45.97;21.20;;;14.00;99.90;;;;;;5089454;28;20827;-63
2022/09/11 05:19:06;;;;;;;39.17;19.53;;;14.00;99.90;;;;;;5089612;28;20465;-62
2022/09/11 05:21:33;;;;;;;38.70;19.47;;;14.00;99.90;;;;;;5075995;28;20439;-63
2022/09/11 05:24:02;;;;;;;42.63;21.60;;;13.90;99.90;;;;;;5076075;28;20474;-62
2022/09/11 05:26:31;;;;;;;38.97;20.80;;;13.90;99.90;;;;;;5075666;28;20790;-63
2022/09/11 05:28:59;;;;;;;43.93;21.37;;;13.90;99.90;;;;;;5076201;28;20486;-63
2022/09/11 05:31:27;;;;;;;34.87;18.30;;;13.90;99.90;;;;;;5075806;28;20444;-63
2022/09/11 05:33:56;;;;;;;36.70;18.80;;;13.80;99.90;;;;;;5075749;28;20443;-63
2022/09/11 05:36:25;;;;;;;38.27;18.40;;;13.80;99.90;;;;;;5076110;28;20451;-63
2022/09/11 05:38:52;;;;;;;28.27;16.80;;;13.90;99.90;;;;;;5076396;28;20443;-63
2022/09/11 05:41:20;;;;;;;35.60;16.97;;;13.80;99.90;;;;;;5075848;28;21000;-63
2022/09/11 05:43:47;;;;;;;34.90;17.53;;;13.90;99.90;;;;;;5075804;28;20439;-63
2022/09/11 05:46:15;;;;;;;33.57;18.37;;;13.90;99.90;;;;;;5075771;28;20450;-63
2022/09/11 05:48:42;;;;;;;35.07;19.63;;;13.90;99.90;;;;;;5076888;28;20479;-62
2022/09/11 05:51:11;;;;;;;36.73;18.53;;;13.90;99.90;;;;;;5077292;28;20442;-62
2022/09/11 05:53:40;;;;;;;47.63;22.80;;;13.90;99.90;;;;;;5075686;28;20455;-63
2022/09/11 05:56:09;;;;;;;41.10;19.87;;;13.90;99.90;;;;;;5075919;28;20455;-62
2022/09/11 05:58:36;;;;;;;41.10;19.60;;;13.90;99.90;;;;;;5075561;28;20974;-63
2022/09/11 06:01:06;;;;;;;37.97;18.93;;;13.90;99.90;;;;;;5076029;28;20443;-63
2022/09/11 06:03:32;;;;;;;36.07;20.13;;;13.90;99.90;;;;;;5075808;28;20443;-62
2022/09/11 06:06:00;;;;;;;45.20;20.77;;;13.90;99.90;;;;;;5077339;28;20522;-63
2022/09/11 06:08:27;;;;;;;41.67;19.90;;;13.90;99.90;;;;;;5076064;28;20524;-63
2022/09/11 06:10:57;;;;;;;40.33;19.57;;;14.00;99.90;;;;;;5075234;28;20621;-62
2022/09/11 06:13:23;;;;;;;48.67;21.40;;;14.00;99.90;;;;;;5075175;28;20534;-63
2022/09/11 06:15:50;;;;;;;41.90;21.57;;;14.00;99.90;;;;;;5075105;28;20439;-62
2022/09/11 06:18:17;;;;;;;44.87;21.13;;;14.00;99.90;;;;;;5074813;28;20997;-63
2022/09/11 06:20:44;;;;;;;46.17;23.30;;;14.00;99.90;;;;;;5075023;28;20439;-63
2022/09/11 06:23:11;;;;;;;43.37;22.90;;;14.00;99.90;;;;;;5074739;28;21048;-62
2022/09/11 06:25:38;;;;;;;49.47;25.60;;;14.00;99.90;;;;;;5075141;28;20449;-62
2022/09/11 06:28:06;;;;;;;46.77;25.50;;;14.00;99.90;;;;;;5074649;28;20466;-63
2022/09/11 06:30:33;;;;;;;47.23;27.10;;;14.10;99.90;;;;;;5074960;28;20482;-62
2022/09/11 06:33:00;;;;;;;47.23;25.63;;;14.10;99.90;;;;;;5073492;28;20938;-62
2022/09/11 06:35:27;;;;;;;47.60;26.50;;;14.10;99.90;;;;;;5074586;28;20443;-62
2022/09/11 06:37:53;;;;;;;41.73;26.40;;;14.20;99.90;;;;;;5074527;28;20462;-62
2022/09/11 06:40:20;;;;;;;45.70;27.83;;;14.20;99.90;;;;;;5074601;28;20435;-63
2022/09/11 06:42:47;;;;;;;37.53;25.60;;;14.30;99.90;;;;;;5074569;28;20443;-64
2022/09/11 06:45:16;;;;;;;44.50;25.93;;;14.40;99.90;;;;;;5074083;28;20935;-62
2022/09/11 06:47:43;;;;;;;38.30;24.77;;;14.50;99.90;;;;;;5074242;28;20537;-64
2022/09/11 06:50:12;;;;;;;38.40;24.27;;;14.50;99.90;;;;;;5074126;28;20470;-64
2022/09/11 06:52:38;;;;;;;36.17;23.83;;;14.60;99.90;;;;;;5073647;28;20451;-61
2022/09/11 06:55:06;;;;;;;34.23;23.30;;;14.70;99.90;;;;;;5074479;28;20443;-62
2022/09/11 06:57:34;;;;;;;32.70;23.53;;;14.70;99.90;;;;;;5073987;28;20474;-62
2022/09/11 07:00:01;;;;;;;34.87;21.87;;;14.80;99.90;;;;;;5074132;28;20493;-62
2022/09/11 07:02:29;;;;;;;30.30;21.20;;;14.80;99.90;;;;;;5073995;28;20454;-62
2022/09/11 07:04:56;;;;;;;30.33;22.57;;;14.90;99.90;;;;;;5086360;28;20451;-64
2022/09/11 07:07:22;;;;;;;31.57;24.30;;;14.90;99.90;;;;;;5074896;28;20916;-61
2022/09/11 07:09:49;;;;;;;31.20;21.60;;;15.00;99.90;;;;;;5074171;28;20494;-64
2022/09/11 07:12:16;;;;;;;34.73;20.27;;;15.00;99.90;;;;;;5073878;28;20817;-60
2022/09/11 07:14:42;;;;;;;27.80;20.80;;;15.10;99.90;;;;;;5073647;28;20456;-62
2022/09/11 07:17:09;;;;;;;30.93;20.97;;;15.10;99.90;;;;;;5073651;28;20466;-62
2022/09/11 07:19:37;;;;;;;26.00;20.60;;;15.10;99.90;;;;;;5073812;28;20439;-62
2022/09/11 07:22:04;;;;;;;31.07;22.70;;;15.20;99.90;;;;;;5073699;28;20447;-62
2022/09/11 07:24:31;;;;;;;30.80;21.90;;;15.20;99.90;;;;;;5073962;28;20909;-64
2022/09/11 07:26:59;;;;;;;29.20;21.17;;;15.20;99.90;;;;;;5075717;28;20474;-63
2022/09/11 07:29:28;;;;;;;30.80;22.20;;;15.20;99.90;;;;;;5075346;28;20471;-63
2022/09/11 07:31:56;;;;;;;28.00;20.83;;;15.20;99.90;;;;;;5074083;28;21030;-62
2022/09/11 07:34:23;;;;;;;31.00;23.43;;;15.30;99.90;;;;;;5072536;28;20443;-62
2022/09/11 07:36:51;;;;;;;30.80;22.40;;;15.30;99.90;;;;;;5074897;28;20467;-63
2022/09/11 07:39:18;;;;;;;32.13;22.70;;;15.30;99.90;;;;;;5074388;28;20804;-63
2022/09/11 07:41:45;;;;;;;34.53;22.83;;;15.40;99.90;;;;;;5074513;28;20447;-62
2022/09/11 07:44:13;;;;;;;32.50;22.60;;;15.40;99.90;;;;;;5073189;28;20962;-62
2022/09/11 07:46:40;;;;;;;31.10;22.00;;;15.50;99.90;;;;;;5073349;28;20482;-63
2022/09/11 07:49:08;;;;;;;31.67;22.50;;;15.60;99.90;;;;;;5072872;28;20443;-62
2022/09/11 07:51:37;;;;;;;33.17;21.70;;;15.60;99.90;;;;;;5073786;28;20517;-63
2022/09/11 07:54:05;;;;;;;31.90;23.43;;;15.70;99.90;;;;;;5073524;28;20447;-63
2022/09/11 07:56:35;;;;;;;30.53;21.37;;;15.70;99.90;;;;;;5073148;28;20451;-64
2022/09/11 07:59:02;;;;;;;30.07;21.63;;;15.80;99.90;;;;;;5073656;28;20489;-63
2022/09/11 08:01:31;;;;;;;29.93;20.97;;;15.80;99.90;;;;;;5075268;28;20439;-63
2022/09/11 08:04:00;;;;;;;29.10;21.37;;;15.80;99.90;;;;;;5075900;28;20496;-63
2022/09/11 08:06:28;;;;;;;28.40;22.23;;;15.90;99.90;;;;;;5075602;28;20454;-62
2022/09/11 08:08:57;;;;;;;27.37;20.63;;;15.90;99.90;;;;;;5076538;28;20452;-63
2022/09/11 08:11:26;;;;;;;30.13;21.60;;;16.00;99.90;;;;;;5073754;28;20435;-63
2022/09/11 08:13:55;;;;;;;34.00;22.70;;;16.00;99.90;;;;;;5073403;28;20439;-62
2022/09/11 08:16:23;;;;;;;32.97;21.10;;;16.10;99.90;;;;;;5072621;28;20446;-62
2022/09/11 08:18:50;;;;;;;31.00;20.80;;;16.20;99.90;;;;;;5073041;28;20442;-62
2022/09/11 08:21:18;;;;;;;30.73;22.07;;;16.20;99.90;;;;;;5072638;28;20431;-63
2022/09/11 08:23:46;;;;;;;27.00;19.90;;;16.30;99.90;;;;;;5072825;28;20439;-63
2022/09/11 08:26:14;;;;;;;27.30;19.23;;;16.40;99.90;;;;;;5075136;28;20447;-62
2022/09/11 08:28:44;;;;;;;22.73;18.27;;;16.60;99.90;;;;;;5075490;28;20439;-63
2022/09/11 08:31:12;;;;;;;23.17;16.73;;;16.80;99.90;;;;;;5066391;22;20500;-61
2022/09/11 08:33:39;;;;;;;23.93;16.80;;;16.90;99.90;;;;;;5034701;28;20477;-60
2022/09/11 08:36:09;;;;;;;16.93;15.03;;;17.00;99.90;;;;;;5033591;28;20818;-59
2022/09/11 08:38:36;;;;;;;21.17;16.30;;;17.10;99.90;;;;;;5034527;28;20445;-59
2022/09/11 08:41:11;;;;;;;20.90;16.40;;;17.30;99.90;;;;;;5033096;28;20468;-60
2022/09/11 08:43:49;;;;;;;23.17;17.00;;;17.50;99.90;;;;;;5033697;28;20443;-61
2022/09/11 08:46:17;;;;;;;22.20;17.70;;;17.70;99.90;;;;;;5032187;28;20554;-59
2022/09/11 08:48:49;;;;;;;26.00;18.33;;;17.80;99.90;;;;;;5032401;28;20476;-59
2022/09/11 08:51:18;;;;;;;22.70;17.03;;;17.80;99.90;;;;;;5032928;28;20485;-59
2022/09/11 08:53:45;;;;;;;20.77;16.73;;;18.00;99.90;;;;;;5032397;28;21018;-60
2022/09/11 08:56:17;;;;;;;18.90;14.77;;;18.00;99.90;;;;;;5034854;28;20933;-60
2022/09/11 08:59:00;;;;;;;21.40;16.10;;;18.00;99.90;;;;;;5036648;28;20479;-60
2022/09/11 09:01:36;;;;;;;18.97;15.60;;;18.00;99.90;;;;;;5036647;28;20822;-60
2022/09/11 09:04:31;;;;;;;20.00;16.33;;;18.00;99.90;;;;;;5037214;28;20424;-61
2022/09/11 09:07:10;;;;;;;19.47;14.60;;;18.00;99.90;;;;;;5036788;28;20441;-60
2022/09/11 09:09:46;;;;;;;23.20;16.00;;;17.90;99.90;;;;;;5036544;28;20519;-60
2022/09/11 09:12:21;;;;;;;20.00;16.60;;;17.80;99.90;;;;;;5037152;28;20848;-60
2022/09/11 09:15:06;;;;;;;19.93;16.50;;;17.60;99.90;;;;;;5037272;28;20437;-59
2022/09/11 09:17:38;;;;;;;17.80;13.57;;;17.50;99.90;;;;;;5036862;28;20440;-60
2022/09/11 09:20:10;;;;;;;15.40;12.40;;;17.50;99.90;;;;;;5037562;28;20468;-60
2022/09/11 09:22:42;;;;;;;15.50;13.20;;;17.50;99.90;;;;;;5037260;28;20432;-60
2022/09/11 09:25:13;;;;;;;16.13;13.30;;;17.50;99.90;;;;;;5036493;28;20926;-60
2022/09/11 09:27:45;;;;;;;16.70;13.47;;;17.50;99.90;;;;;;5036626;28;20429;-60
2022/09/11 09:30:17;;;;;;;15.47;12.73;;;17.50;99.90;;;;;;5035618;28;20481;-61
2022/09/11 09:32:49;;;;;;;13.93;11.87;;;17.70;99.90;;;;;;5036017;28;20843;-60
2022/09/11 09:35:21;;;;;;;12.33;10.80;;;17.90;99.90;;;;;;5037182;28;20451;-61
2022/09/11 09:37:49;;;;;;;14.40;10.63;;;18.20;99.90;;;;;;5037659;28;20487;-60
2022/09/11 09:40:17;;;;;;;16.23;10.30;;;18.40;99.90;;;;;;5037118;28;20465;-60
2022/09/11 09:43:04;;;;;;;12.50;10.50;;;18.50;99.90;;;;;;5037948;28;20503;-61
2022/09/11 09:45:40;;;;;;;12.13;10.07;;;18.70;99.90;;;;;;5037277;28;20430;-61
2022/09/11 09:48:10;;;;;;;12.70;10.50;;;18.80;99.90;;;;;;5037913;28;20887;-60
2022/09/11 09:50:39;;;;;;;11.50;10.23;;;19.00;99.90;;;;;;5037209;28;21055;-60
2022/09/11 09:53:15;;;;;;;15.53;12.10;;;19.10;99.90;;;;;;5038052;28;20456;-60
2022/09/11 09:55:43;;;;;;;15.07;12.30;;;19.20;99.90;;;;;;5037446;28;20524;-61
2022/09/11 09:58:10;;;;;;;18.07;13.10;;;19.30;99.90;;;;;;5038266;28;20445;-61
2022/09/11 10:00:40;;;;;;;13.60;11.30;;;19.30;99.90;;;;;;5036946;28;20465;-61
2022/09/11 10:03:21;;;;;;;16.53;11.83;;;19.40;99.90;;;;;;5037654;28;20449;-60
2022/09/11 10:05:52;;;;;;;14.23;10.97;;;19.40;99.90;;;;;;5036981;28;20963;-61
2022/09/11 10:08:26;;;;;;;16.30;10.80;;;19.30;99.90;;;;;;5035816;28;20504;-61
2022/09/11 10:10:57;;;;;;;13.10;11.07;;;19.20;99.90;;;;;;5036384;28;20571;-60
2022/09/11 10:13:27;;;;;;;13.63;11.53;;;19.30;99.90;;;;;;5036705;28;20536;-61
2022/09/11 10:15:58;;;;;;;12.40;10.87;;;19.40;99.90;;;;;;5036413;28;20954;-60
2022/09/11 10:18:34;;;;;;;15.30;10.87;;;19.40;99.90;;;;;;5035962;28;20440;-61
2022/09/11 10:21:15;;;;;;;11.10;10.00;;;19.50;99.80;;;;;;5035405;28;20527;-61
2022/09/11 10:23:46;;;;;;;14.23;10.90;;;19.50;99.60;;;;;;5035509;28;20441;-61
2022/09/11 10:26:17;;;;;;;11.63;10.40;;;19.50;99.50;;;;;;5035487;28;20479;-61
2022/09/11 10:28:45;;;;;;;13.67;10.40;;;19.50;99.20;;;;;;5035539;28;20509;-60
2022/09/11 10:31:16;;;;;;;13.57;10.90;;;19.40;99.00;;;;;;5035290;28;20484;-61
2022/09/11 10:33:48;;;;;;;13.00;10.20;;;19.30;98.90;;;;;;5035378;28;20487;-60
2022/09/11 10:36:22;;;;;;;13.93;10.47;;;19.20;99.30;;;;;;5034982;28;20480;-60
2022/09/11 10:38:51;;;;;;;15.17;11.83;;;19.20;99.10;;;;;;5035630;28;20539;-61
2022/09/11 10:41:21;;;;;;;12.47;10.67;;;19.10;98.90;;;;;;5034431;28;20999;-61
2022/09/11 10:43:54;;;;;;;15.27;12.03;;;19.20;99.00;;;;;;5036145;28;20425;-60
2022/09/11 10:46:32;;;;;;;17.13;13.00;;;19.20;98.90;;;;;;5036376;28;20442;-60
2022/09/11 10:49:08;;;;;;;18.37;12.60;;;19.20;98.80;;;;;;5035324;28;20432;-61
2022/09/11 10:51:37;;;;;;;17.33;12.37;;;19.20;99.00;;;;;;5036645;28;20484;-61
2022/09/11 10:54:22;;;;;;;15.93;12.30;;;19.20;99.00;;;;;;5035841;28;20453;-61
2022/09/11 10:57:05;;;;;;;15.03;12.53;;;19.30;98.80;;;;;;5035500;28;20852;-61
2022/09/11 10:59:39;;;;;;;17.40;12.43;;;19.20;99.10;;;;;;5034728;28;20572;-61
2022/09/11 11:02:18;;;;;;;15.37;12.67;;;19.20;99.10;;;;;;5034459;28;20516;-61
2022/09/11 11:04:46;;;;;;;15.27;12.17;;;19.10;99.10;;;;;;5034167;28;20438;-61
2022/09/11 11:07:27;;;;;;;14.37;11.70;;;19.00;99.20;;;;;;5034864;28;20456;-61
2022/09/11 11:10:03;;;;;;;17.53;11.00;;;19.00;99.40;;;;;;5033962;28;20555;-63
2022/09/11 11:12:54;;;;;;;16.00;11.57;;;19.00;99.40;;;;;;5033863;28;20523;-62
2022/09/11 11:15:34;;;;;;;14.40;9.97;;;19.10;99.40;;;;;;5034096;28;20873;-62
2022/09/11 11:18:30;;;;;;;13.70;11.13;;;19.20;99.40;;;;;;5033459;28;20452;-62
2022/09/11 11:21:05;;;;;;;15.07;10.60;;;19.30;99.20;;;;;;5033729;28;20465;-61
2022/09/11 11:23:58;;;;;;;15.53;10.50;;;19.50;98.80;;;;;;5034200;28;20440;-61
2022/09/11 11:26:42;;;;;;;13.30;10.00;;;19.60;98.80;;;;;;5033999;28;20900;-61
2022/09/11 11:29:28;;;;;;;13.60;10.07;;;19.80;98.20;;;;;;5034494;28;20820;-62
2022/09/11 11:32:15;;;;;;;11.83;10.20;;;20.00;97.90;;;;;;5034043;28;20470;-61
2022/09/11 11:35:00;;;;;;;9.90;7.80;;;20.30;97.20;;;;;;5036846;28;20445;-61
2022/09/11 11:37:32;;;;;;;9.97;8.20;;;20.60;96.10;;;;;;5033873;28;20463;-61
2022/09/11 11:40:04;;;;;;;10.20;8.50;;;20.80;95.30;;;;;;5033925;28;20466;-61
2022/09/11 11:42:37;;;;;;;10.50;8.40;;;21.10;94.00;;;;;;5034599;28;20434;-61
2022/09/11 11:45:10;;;;;;;11.07;8.37;;;21.20;92.70;;;;;;5033528;28;20439;-62
2022/09/11 11:47:41;;;;;;;10.50;8.03;;;21.40;91.90;;;;;;5033201;28;20433;-61
2022/09/11 11:50:13;;;;;;;8.60;7.53;;;21.40;90.90;;;;;;5033555;28;20472;-60
2022/09/11 11:52:48;;;;;;;9.20;7.27;;;21.30;90.80;;;;;;5033982;28;20435;-62
2022/09/11 11:55:19;;;;;;;10.03;7.80;;;21.20;90.60;;;;;;5033739;28;20441;-61
2022/09/11 11:57:55;;;;;;;6.57;5.97;;;21.20;90.60;;;;;;5034162;28;20509;-61
2022/09/11 12:00:22;;;;;;;9.60;8.30;;;21.20;90.40;;;;;;5033893;28;20866;-60
2022/09/11 12:02:55;;;;;;;7.73;6.70;;;21.20;90.00;;;;;;5033687;28;20821;-61
2022/09/11 12:05:26;;;;;;;12.30;6.73;;;21.20;90.00;;;;;;5033510;28;20440;-62
2022/09/11 12:07:53;;;;;;;7.73;6.13;;;21.20;89.70;;;;;;5034361;28;20527;-62
2022/09/11 12:10:30;;;;;;;7.43;5.70;;;21.20;89.30;;;;;;5033428;28;20478;-61
2022/09/11 12:13:00;;;;;;;8.00;6.20;;;21.10;89.20;;;;;;5033521;28;20920;-62
2022/09/11 12:15:30;;;;;;;6.30;5.47;;;20.90;88.30;;;;;;5033845;28;20452;-60
2022/09/11 12:18:00;;;;;;;6.77;5.37;;;20.70;88.60;;;;;;5034225;28;20452;-61
2022/09/11 12:20:38;;;;;;;7.83;5.23;;;20.70;89.10;;;;;;5034561;28;20455;-61
2022/09/11 12:23:27;;;;;;;8.23;5.67;;;20.90;88.40;;;;;;5033857;28;20430;-61
2022/09/11 12:26:18;;;;;;;6.83;4.20;;;21.00;87.00;;;;;;5035809;28;20449;-61
2022/09/11 12:28:46;;;;;;;5.50;4.80;;;21.10;85.10;;;;;;5034303;28;20811;-61
2022/09/11 12:31:14;;;;;;;4.63;3.77;;;21.20;84.30;;;;;;5035709;28;20883;-62
2022/09/11 12:33:57;;;;;;;4.87;4.37;;;21.20;83.70;;;;;;5037081;28;20457;-61
2022/09/11 12:36:48;;;;;;;4.60;3.30;;;21.10;83.30;;;;;;5036811;28;20441;-62
2022/09/11 12:39:23;;;;;;;3.07;2.77;;;21.00;83.70;;;;;;5038051;28;20435;-61
2022/09/11 12:41:52;;;;;;;4.43;2.70;;;21.00;82.50;;;;;;5037170;28;20448;-61
2022/09/11 12:44:31;;;;;;;3.27;2.57;;;21.10;81.30;;;;;;5037179;28;20455;-61
2022/09/11 12:47:15;;;;;;;2.50;2.17;;;21.20;80.10;;;;;;5036995;28;20434;-61
2022/09/11 12:49:51;;;;;;;2.40;2.17;;;21.40;79.00;;;;;;5037745;28;20527;-62
2022/09/11 12:52:36;;;;;;;2.97;2.37;;;21.50;76.90;;;;;;5037193;28;20465;-61